Time;durP1;ratioP1;P1;durP2;ratioP2;P2;SDS_P1;SDS_P2;PMS_P1;PMS_P2;Temp;Humidity;BMP_temperature;BMP_pressure;BME280_temperature;BME280_humidity;BME280_pressure;Samples;Min_cycle;Max_cycle;Signal;HPM_P1;HPM_P2
2023/06/01 00:00:24;;;;;;;0.22;0.22;;;10.90;99.90;;;;;;5035112;28;20029;-76
2023/06/01 00:02:50;;;;;;;0.20;0.20;;;10.90;99.90;;;;;;5016623;28;20026;-77
2023/06/01 00:05:16;;;;;;;0.20;0.20;;;10.70;99.90;;;;;;5034452;28;20525;-76
2023/06/01 00:07:41;;;;;;;0.20;0.20;;;10.80;99.90;;;;;;5034370;28;20555;-76
2023/06/01 00:10:07;;;;;;;0.20;0.20;;;10.80;99.90;;;;;;5016651;28;20017;-77
2023/06/01 00:12:33;;;;;;;0.30;0.30;;;10.80;99.90;;;;;;5034244;28;20037;-77
2023/06/01 00:14:59;;;;;;;0.20;0.20;;;10.90;99.90;;;;;;5034233;28;20029;-76
2023/06/01 00:17:24;;;;;;;0.20;0.20;;;10.90;99.90;;;;;;5016532;28;20051;-76
2023/06/01 00:19:50;;;;;;;0.13;0.13;;;10.90;99.90;;;;;;5034182;28;20372;-76
2023/06/01 00:22:16;;;;;;;0.20;0.20;;;10.90;99.90;;;;;;5034213;28;20395;-76
2023/06/01 00:24:42;;;;;;;0.15;0.15;;;10.90;99.90;;;;;;5034171;28;20022;-76
2023/06/01 00:27:07;;;;;;;0.20;0.20;;;10.90;99.90;;;;;;5033951;28;20452;-77
2023/06/01 00:29:33;;;;;;;0.20;0.20;;;10.90;99.90;;;;;;5034011;28;20022;-76
2023/06/01 00:31:59;;;;;;;0.20;0.20;;;10.90;99.90;;;;;;5033905;28;20498;-76
2023/06/01 00:34:24;;;;;;;0.20;0.20;;;10.90;99.90;;;;;;5033928;28;20071;-77
2023/06/01 00:36:50;;;;;;;0.20;0.20;;;10.90;99.90;;;;;;5033791;28;20060;-77
2023/06/01 00:39:16;;;;;;;0.20;0.20;;;10.90;99.90;;;;;;5033787;28;20033;-77
2023/06/01 00:41:41;;;;;;;0.20;0.20;;;10.90;99.90;;;;;;5015967;28;20029;-77
2023/06/01 00:44:07;;;;;;;0.20;0.20;;;11.00;99.90;;;;;;5033691;28;20508;-77
2023/06/01 00:46:34;;;;;;;0.20;0.20;;;11.00;99.90;;;;;;5032952;28;20017;-77
2023/06/01 00:48:59;;;;;;;0.20;0.20;;;11.00;99.90;;;;;;5015858;28;20036;-76
2023/06/01 00:51:25;;;;;;;0.20;0.20;;;11.00;99.90;;;;;;5033609;28;20026;-76
2023/06/01 00:53:51;;;;;;;0.22;0.22;;;11.00;99.90;;;;;;5033544;28;20052;-76
2023/06/01 00:56:17;;;;;;;0.30;0.30;;;11.00;99.90;;;;;;5033468;28;20033;-76
2023/06/01 00:58:43;;;;;;;0.17;0.17;;;11.00;99.90;;;;;;5033480;28;20029;-76
2023/06/01 01:01:18;;;;;;;0.20;0.20;;;11.00;99.90;;;;;;5033346;28;20064;-77
2023/06/01 01:03:46;;;;;;;0.20;0.20;;;11.00;99.90;;;;;;5033743;28;20022;-77
2023/06/01 01:06:26;;;;;;;0.20;0.20;;;10.90;99.90;;;;;;5033348;28;20017;-77
2023/06/01 01:09:10;;;;;;;0.20;0.20;;;11.00;99.90;;;;;;5033511;28;20032;-76
2023/06/01 01:11:37;;;;;;;;;;;10.90;99.90;;;;;;5033802;28;20031;-77
2023/06/01 01:14:15;;;;;;;0.20;0.20;;;10.90;99.90;;;;;;5033267;28;19955;-77
2023/06/01 01:16:48;;;;;;;0.30;0.30;;;10.90;99.90;;;;;;5033488;28;20029;-77
2023/06/01 01:19:35;;;;;;;0.20;0.20;;;10.90;99.90;;;;;;5033439;28;20025;-76
2023/06/01 01:22:20;;;;;;;0.20;0.20;;;11.00;99.90;;;;;;5033305;28;20021;-77
2023/06/01 01:25:21;;;;;;;0.20;0.20;;;10.90;99.90;;;;;;5015521;28;20049;-76
2023/06/01 01:28:05;;;;;;;0.30;0.30;;;10.80;99.90;;;;;;5033089;28;20097;-75
2023/06/01 01:30:33;;;;;;;0.20;0.20;;;10.80;99.90;;;;;;5033080;28;20105;-76
2023/06/01 01:33:00;;;;;;;0.20;0.20;;;10.80;99.90;;;;;;5033088;28;20032;-76
2023/06/01 01:35:27;;;;;;;0.20;0.20;;;10.80;99.90;;;;;;5015374;28;20032;-76
2023/06/01 01:37:54;;;;;;;0.30;0.30;;;10.80;99.90;;;;;;5032931;28;20151;-76
2023/06/01 01:40:20;;;;;;;0.20;0.20;;;10.90;99.90;;;;;;5033156;28;20029;-76
2023/06/01 01:42:47;;;;;;;0.20;0.20;;;10.80;99.90;;;;;;5033201;28;20025;-76
2023/06/01 01:45:14;;;;;;;0.13;0.13;;;10.80;99.90;;;;;;5033004;28;20458;-76
2023/06/01 01:48:11;;;;;;;0.20;0.20;;;10.80;99.90;;;;;;5032979;28;20033;-75
2023/06/01 01:50:44;;;;;;;0.20;0.20;;;10.80;99.90;;;;;;5033042;28;20049;-76
2023/06/01 01:53:11;;;;;;;0.17;0.17;;;10.80;99.90;;;;;;5033077;28;20380;-76
2023/06/01 01:55:37;;;;;;;0.20;0.20;;;10.80;99.90;;;;;;5032886;28;20554;-77
2023/06/01 01:58:03;;;;;;;0.10;0.10;;;10.80;99.90;;;;;;5018110;28;20112;-77
2023/06/01 02:00:30;;;;;;;0.20;0.20;;;10.80;99.90;;;;;;5036998;28;20025;-77
2023/06/01 02:02:56;;;;;;;0.20;0.20;;;10.80;99.90;;;;;;5018980;28;20442;-76
2023/06/01 02:05:21;;;;;;;0.20;0.20;;;10.80;99.90;;;;;;5036848;28;20018;-76
2023/06/01 02:07:47;;;;;;;0.20;0.20;;;10.80;99.90;;;;;;5036985;28;20093;-76
2023/06/01 02:10:12;;;;;;;0.20;0.20;;;10.90;99.90;;;;;;5036805;28;20029;-76
2023/06/01 02:12:38;;;;;;;0.20;0.20;;;10.90;99.90;;;;;;5020016;28;20025;-76
2023/06/01 02:15:05;;;;;;;0.10;0.10;;;10.90;99.90;;;;;;5018792;28;20029;-76
2023/06/01 02:17:32;;;;;;;0.20;0.20;;;10.90;99.90;;;;;;5036470;28;20024;-76
2023/06/01 02:19:58;;;;;;;0.30;0.30;;;10.90;99.90;;;;;;5018751;28;20029;-76
2023/06/01 02:22:24;;;;;;;0.20;0.20;;;11.00;99.90;;;;;;5036328;28;20033;-76
2023/06/01 02:24:49;;;;;;;0.20;0.20;;;10.90;99.90;;;;;;5036706;28;20053;-76
2023/06/01 02:27:15;;;;;;;0.20;0.20;;;10.90;99.90;;;;;;5036485;28;20024;-76
2023/06/01 02:29:41;;;;;;;0.20;0.20;;;10.90;99.90;;;;;;5036318;28;20477;-76
2023/06/01 02:32:07;;;;;;;0.20;0.20;;;10.90;99.90;;;;;;5036448;28;20055;-76
2023/06/01 02:34:32;;;;;;;0.20;0.20;;;10.90;99.90;;;;;;5036280;28;20037;-76
2023/06/01 02:36:59;;;;;;;0.20;0.20;;;11.00;99.90;;;;;;5058948;23;20605;-74
2023/06/01 02:39:24;;;;;;;0.20;0.20;;;10.90;99.90;;;;;;5034864;28;20025;-74
2023/06/01 02:41:50;;;;;;;0.20;0.20;;;10.80;99.90;;;;;;5035992;28;20052;-74
2023/06/01 02:44:15;;;;;;;0.20;0.20;;;10.80;99.90;;;;;;5036298;28;20391;-74
2023/06/01 02:46:41;;;;;;;0.25;0.25;;;10.70;99.90;;;;;;5035891;28;20021;-74
2023/06/01 02:49:07;;;;;;;0.25;0.25;;;10.70;99.90;;;;;;5035998;28;20395;-74
2023/06/01 02:51:32;;;;;;;0.20;0.20;;;10.70;99.90;;;;;;5035925;28;20029;-74
2023/06/01 02:53:59;;;;;;;0.20;0.20;;;10.70;99.90;;;;;;5035789;28;20033;-74
2023/06/01 02:56:25;;;;;;;0.20;0.20;;;10.70;99.90;;;;;;5035765;28;20033;-74
2023/06/01 02:58:50;;;;;;;0.20;0.20;;;10.70;99.90;;;;;;5035755;28;20055;-74
2023/06/01 03:01:16;;;;;;;0.22;0.22;;;10.60;99.90;;;;;;5035632;28;20411;-74
2023/06/01 03:03:42;;;;;;;0.20;0.20;;;10.50;99.90;;;;;;5035798;28;20026;-74
2023/06/01 03:06:08;;;;;;;0.20;0.20;;;10.70;99.90;;;;;;5034291;28;20440;-74
2023/06/01 03:08:34;;;;;;;0.28;0.28;;;10.60;99.90;;;;;;5034809;28;20022;-74
2023/06/01 03:11:00;;;;;;;0.20;0.20;;;10.70;99.90;;;;;;5034283;28;20021;-74
2023/06/01 03:13:25;;;;;;;0.20;0.20;;;10.70;99.90;;;;;;5035532;28;20033;-74
2023/06/01 03:15:51;;;;;;;0.20;0.20;;;10.70;99.90;;;;;;5035370;28;20021;-74
2023/06/01 03:18:17;;;;;;;0.30;0.30;;;10.70;99.90;;;;;;5029976;28;20032;-74
2023/06/01 03:20:42;;;;;;;0.20;0.20;;;10.70;99.90;;;;;;5016005;28;20539;-74
2023/06/01 03:23:08;;;;;;;0.20;0.20;;;10.60;99.90;;;;;;5030150;28;20116;-74
2023/06/01 03:25:33;;;;;;;0.20;0.20;;;10.60;99.90;;;;;;5034772;28;20021;-74
2023/06/01 03:27:59;;;;;;;0.15;0.15;;;10.60;99.90;;;;;;5033668;28;20036;-73
2023/06/01 03:30:25;;;;;;;0.20;0.20;;;10.60;99.90;;;;;;5035155;28;20069;-74
2023/06/01 03:32:51;;;;;;;0.20;0.20;;;10.60;99.90;;;;;;5033856;28;20024;-74
2023/06/01 03:35:16;;;;;;;0.20;0.20;;;10.60;99.90;;;;;;5034752;28;20128;-73
2023/06/01 03:37:44;;;;;;;0.20;0.20;;;10.50;99.90;;;;;;5033421;28;20033;-73
2023/06/01 03:40:10;;;;;;;0.20;0.20;;;10.50;99.90;;;;;;5035021;28;20079;-74
2023/06/01 03:42:41;;;;;;;0.20;0.20;;;10.60;99.90;;;;;;5034564;28;20163;-74
2023/06/01 03:45:08;;;;;;;0.20;0.20;;;10.60;99.90;;;;;;5034854;28;20096;-74
2023/06/01 03:47:33;;;;;;;0.20;0.20;;;10.60;99.90;;;;;;5034546;28;20071;-74
2023/06/01 03:50:01;;;;;;;0.20;0.20;;;10.70;99.90;;;;;;5033527;28;20056;-73
2023/06/01 03:52:27;;;;;;;0.20;0.20;;;10.70;99.90;;;;;;5034413;28;20026;-74
2023/06/01 03:54:54;;;;;;;0.20;0.20;;;10.70;99.90;;;;;;5034751;28;20071;-74
2023/06/01 03:57:20;;;;;;;0.20;0.20;;;10.60;99.90;;;;;;5034354;28;20032;-74
2023/06/01 03:59:46;;;;;;;0.20;0.20;;;10.60;99.90;;;;;;5034709;28;20098;-74
2023/06/01 04:02:11;;;;;;;0.20;0.20;;;10.60;99.90;;;;;;5034440;28;20052;-74
2023/06/01 04:04:37;;;;;;;0.20;0.20;;;10.50;99.90;;;;;;5034309;28;20053;-74
2023/06/01 04:07:05;;;;;;;0.20;0.20;;;10.50;99.90;;;;;;5034174;28;20029;-74
2023/06/01 04:09:30;;;;;;;0.20;0.20;;;10.50;99.90;;;;;;5034422;28;20059;-74
2023/06/01 04:11:56;;;;;;;0.20;0.20;;;10.50;99.90;;;;;;5034189;28;20087;-74
2023/06/01 04:14:21;;;;;;;0.20;0.20;;;10.50;99.90;;;;;;5034392;28;20018;-73
2023/06/01 04:16:47;;;;;;;0.20;0.20;;;10.60;99.90;;;;;;5033948;28;20053;-74
2023/06/01 04:19:13;;;;;;;0.30;0.30;;;10.60;99.90;;;;;;5034152;28;20100;-74
2023/06/01 04:21:38;;;;;;;0.20;0.20;;;10.60;99.90;;;;;;5033060;28;20057;-74
2023/06/01 04:24:04;;;;;;;0.22;0.22;;;10.70;99.90;;;;;;5033755;28;20512;-74
2023/06/01 04:26:31;;;;;;;0.20;0.20;;;10.70;99.90;;;;;;5033912;28;20100;-74
2023/06/01 04:28:58;;;;;;;0.20;0.20;;;10.60;99.90;;;;;;5033968;28;20059;-74
2023/06/01 04:31:24;;;;;;;0.20;0.20;;;10.60;99.90;;;;;;5033854;28;20072;-74
2023/06/01 04:33:52;;;;;;;0.17;0.17;;;10.60;99.90;;;;;;5033834;28;20033;-74
2023/06/01 04:36:22;;;;;;;0.20;0.20;;;10.70;99.90;;;;;;5033418;28;20084;-74
2023/06/01 04:38:52;;;;;;;0.20;0.20;;;10.70;99.90;;;;;;5033907;28;20056;-74
2023/06/01 04:41:21;;;;;;;0.30;0.30;;;10.80;99.90;;;;;;5033458;28;20506;-74
2023/06/01 04:43:52;;;;;;;0.20;0.20;;;10.80;99.90;;;;;;5033671;28;20017;-74
2023/06/01 04:46:23;;;;;;;0.20;0.20;;;10.80;99.90;;;;;;5033700;28;20432;-74
2023/06/01 04:48:51;;;;;;;0.20;0.20;;;10.80;99.90;;;;;;5033472;28;20013;-74
2023/06/01 04:51:19;;;;;;;0.30;0.30;;;10.80;99.90;;;;;;5033633;28;20024;-74
2023/06/01 04:53:49;;;;;;;0.20;0.20;;;10.90;99.90;;;;;;5033169;28;20391;-74
2023/06/01 04:56:16;;;;;;;0.20;0.20;;;10.80;99.90;;;;;;5032238;28;20021;-74
2023/06/01 04:58:41;;;;;;;0.20;0.20;;;10.90;99.90;;;;;;5033166;28;20025;-74
2023/06/01 05:01:07;;;;;;;0.20;0.20;;;11.00;99.90;;;;;;5033286;28;20036;-74
2023/06/01 05:03:33;;;;;;;0.13;0.13;;;11.00;99.90;;;;;;5033308;28;20385;-74
2023/06/01 05:05:58;;;;;;;0.10;0.10;;;11.00;99.90;;;;;;5033229;28;20036;-74
2023/06/01 05:08:24;;;;;;;0.20;0.20;;;11.00;99.90;;;;;;5033573;28;20021;-74
2023/06/01 05:10:49;;;;;;;0.20;0.20;;;11.10;99.90;;;;;;5033103;28;20030;-74
2023/06/01 05:13:15;;;;;;;0.20;0.20;;;11.00;99.90;;;;;;5033194;28;20434;-74
2023/06/01 05:15:41;;;;;;;0.20;0.20;;;11.20;99.90;;;;;;5032006;28;20037;-74
2023/06/01 05:18:06;;;;;;;0.20;0.20;;;11.20;99.90;;;;;;5033033;28;20031;-74
2023/06/01 05:20:32;;;;;;;0.22;0.22;;;11.20;99.90;;;;;;5033270;28;20487;-74
2023/06/01 05:22:57;;;;;;;0.20;0.20;;;11.20;99.90;;;;;;5032699;28;20372;-74
2023/06/01 05:25:23;;;;;;;0.20;0.20;;;11.30;99.90;;;;;;5033023;28;20029;-73
2023/06/01 05:27:48;;;;;;;0.20;0.20;;;11.30;99.90;;;;;;5033039;28;20017;-74
2023/06/01 05:30:14;;;;;;;0.20;0.20;;;11.30;99.90;;;;;;5032689;28;20025;-74
2023/06/01 05:32:40;;;;;;;0.20;0.20;;;11.30;99.90;;;;;;5032689;28;20029;-73
2023/06/01 05:35:06;;;;;;;0.20;0.20;;;11.40;99.90;;;;;;5031462;28;20022;-74
2023/06/01 05:37:31;;;;;;;0.20;0.20;;;11.40;99.90;;;;;;5032820;28;20053;-74
2023/06/01 05:39:57;;;;;;;0.20;0.20;;;11.40;99.90;;;;;;5032779;28;20033;-74
2023/06/01 05:42:22;;;;;;;0.20;0.20;;;11.40;99.90;;;;;;5032890;28;20026;-74
2023/06/01 05:44:48;;;;;;;0.20;0.20;;;11.40;99.90;;;;;;5032808;28;20113;-74
2023/06/01 05:47:13;;;;;;;0.20;0.20;;;11.40;99.90;;;;;;5032730;28;20112;-73
2023/06/01 05:49:39;;;;;;;0.15;0.15;;;11.60;99.90;;;;;;5032886;28;20061;-74
2023/06/01 05:52:05;;;;;;;0.20;0.20;;;11.60;99.90;;;;;;5032663;28;20052;-74
2023/06/01 05:54:31;;;;;;;0.20;0.20;;;11.70;99.90;;;;;;5032619;28;20048;-74
2023/06/01 05:56:56;;;;;;;0.20;0.20;;;11.80;99.90;;;;;;5032460;28;20037;-74
2023/06/01 05:59:22;;;;;;;0.20;0.20;;;11.80;99.90;;;;;;5032768;28;20025;-74
2023/06/01 06:01:51;;;;;;;0.30;0.30;;;11.90;99.90;;;;;;5032371;28;20475;-74
2023/06/01 06:04:16;;;;;;;0.20;0.20;;;11.80;99.90;;;;;;5031375;28;20056;-74
2023/06/01 06:06:42;;;;;;;0.20;0.20;;;11.90;99.90;;;;;;5032533;28;20061;-74
2023/06/01 06:09:07;;;;;;;0.20;0.20;;;12.00;99.90;;;;;;5021090;28;20025;-74
2023/06/01 06:11:33;;;;;;;0.20;0.20;;;12.10;99.90;;;;;;5018538;28;20022;-74
2023/06/01 06:13:58;;;;;;;0.20;0.20;;;12.20;99.90;;;;;;5012867;28;20034;-74
2023/06/01 06:16:24;;;;;;;0.10;0.10;;;12.10;99.90;;;;;;5012664;28;20030;-74
2023/06/01 06:18:50;;;;;;;0.20;0.20;;;12.10;99.90;;;;;;5021217;28;20029;-74
2023/06/01 06:21:15;;;;;;;0.13;0.13;;;12.20;99.90;;;;;;5014424;28;20034;-74
2023/06/01 06:23:42;;;;;;;0.20;0.20;;;12.30;99.90;;;;;;5012989;28;20041;-74
2023/06/01 06:26:08;;;;;;;0.20;0.20;;;12.20;99.90;;;;;;5023603;28;20109;-74
2023/06/01 06:28:33;;;;;;;0.20;0.20;;;12.20;99.90;;;;;;5025280;28;20096;-73
2023/06/01 06:30:59;;;;;;;0.20;0.20;;;12.20;99.90;;;;;;5011462;28;20026;-74
2023/06/01 06:33:24;;;;;;;0.20;0.20;;;12.00;99.90;;;;;;5012637;28;20026;-73
2023/06/01 06:35:50;;;;;;;0.13;0.13;;;12.00;99.90;;;;;;5012711;28;20030;-73
2023/06/01 06:38:16;;;;;;;0.20;0.20;;;12.00;99.90;;;;;;5019327;28;20426;-73
2023/06/01 06:40:42;;;;;;;0.20;0.20;;;12.00;99.90;;;;;;5030910;28;20022;-73
2023/06/01 06:43:08;;;;;;;0.22;0.22;;;12.00;99.90;;;;;;5023380;28;20495;-73
2023/06/01 06:45:34;;;;;;;0.20;0.20;;;12.00;99.90;;;;;;5031698;28;20021;-73
2023/06/01 06:47:59;;;;;;;0.17;0.17;;;12.10;99.90;;;;;;5024382;28;20022;-73
2023/06/01 06:50:25;;;;;;;0.20;0.20;;;12.10;99.90;;;;;;5016077;28;20014;-72
2023/06/01 06:52:51;;;;;;;0.20;0.20;;;12.00;99.90;;;;;;5027219;28;20029;-73
2023/06/01 06:55:17;;;;;;;0.20;0.20;;;12.00;99.90;;;;;;5035830;28;20506;-73
2023/06/01 06:57:42;;;;;;;0.20;0.20;;;12.10;99.90;;;;;;5031205;28;20034;-73
2023/06/01 07:00:08;;;;;;;0.10;0.10;;;12.10;99.90;;;;;;5020085;28;20026;-73
2023/06/01 07:02:34;;;;;;;0.30;0.30;;;12.30;99.90;;;;;;5029739;28;20036;-73
2023/06/01 07:05:00;;;;;;;0.20;0.20;;;12.20;99.90;;;;;;5032172;28;20025;-73
2023/06/01 07:07:26;;;;;;;0.20;0.20;;;12.30;99.90;;;;;;5035229;28;20021;-73
2023/06/01 07:09:53;;;;;;;0.20;0.20;;;12.40;99.90;;;;;;5035471;28;20014;-73
2023/06/01 07:12:18;;;;;;;0.20;0.20;;;12.30;99.90;;;;;;5035456;28;20097;-73
2023/06/01 07:14:44;;;;;;;0.13;0.13;;;12.20;99.90;;;;;;5035416;28;20025;-73
2023/06/01 07:17:09;;;;;;;0.20;0.20;;;12.10;99.90;;;;;;5035421;28;20029;-73
2023/06/01 07:19:35;;;;;;;0.20;0.20;;;12.20;99.90;;;;;;5034254;28;20148;-73
2023/06/01 07:22:00;;;;;;;0.20;0.20;;;12.30;99.90;;;;;;5035823;28;20040;-73
2023/06/01 07:24:27;;;;;;;0.20;0.20;;;12.40;99.90;;;;;;5034063;28;20029;-72
2023/06/01 07:26:53;;;;;;;0.20;0.20;;;12.40;99.90;;;;;;5035243;28;20021;-73
2023/06/01 07:29:20;;;;;;;0.20;0.20;;;12.50;99.90;;;;;;5035207;28;20426;-73
2023/06/01 07:31:46;;;;;;;0.17;0.17;;;12.70;99.90;;;;;;5034839;28;20487;-73
2023/06/01 07:34:12;;;;;;;0.20;0.20;;;13.00;99.90;;;;;;5035049;28;20039;-73
2023/06/01 07:36:38;;;;;;;0.13;0.13;;;12.90;99.90;;;;;;5034932;28;20033;-73
2023/06/01 07:39:08;;;;;;;0.10;0.10;;;12.70;99.90;;;;;;5035039;28;20034;-73
2023/06/01 07:41:34;;;;;;;0.20;0.20;;;12.70;99.90;;;;;;5035034;28;20049;-73
2023/06/01 07:44:00;;;;;;;0.10;0.10;;;12.60;99.90;;;;;;5034978;28;20111;-73
2023/06/01 07:46:26;;;;;;;0.10;0.10;;;12.80;99.90;;;;;;5035073;28;20057;-73
2023/06/01 07:48:51;;;;;;;0.20;0.20;;;12.80;99.90;;;;;;5034873;28;20064;-73
2023/06/01 07:51:17;;;;;;;0.20;0.20;;;13.10;99.90;;;;;;5034873;28;20045;-74
2023/06/01 07:53:43;;;;;;;0.20;0.20;;;13.30;99.90;;;;;;5034975;28;20029;-73
2023/06/01 07:56:10;;;;;;;0.20;0.20;;;13.40;99.90;;;;;;5034533;28;20028;-73
2023/06/01 07:58:36;;;;;;;0.17;0.17;;;13.30;99.90;;;;;;5034681;28;20018;-73
2023/06/01 08:01:02;;;;;;;0.30;0.30;;;13.00;99.90;;;;;;5034754;28;20018;-73
2023/06/01 08:03:28;;;;;;;0.10;0.10;;;12.80;99.90;;;;;;5034915;28;20029;-73
2023/06/01 08:05:59;;;;;;;0.20;0.20;;;12.90;99.90;;;;;;5034423;28;20025;-73
2023/06/01 08:08:25;;;;;;;0.10;0.10;;;12.90;99.90;;;;;;5035109;28;20024;-73
2023/06/01 08:10:51;;;;;;;0.20;0.20;;;12.90;99.90;;;;;;5034445;28;20030;-73
2023/06/01 08:13:18;;;;;;;0.20;0.20;;;13.10;99.90;;;;;;5034720;28;20028;-73
2023/06/01 08:15:47;;;;;;;0.20;0.20;;;13.10;99.90;;;;;;5034285;28;20023;-73
2023/06/01 08:18:13;;;;;;;0.20;0.20;;;13.00;99.90;;;;;;5033341;28;20435;-73
2023/06/01 08:20:39;;;;;;;0.20;0.20;;;12.90;99.90;;;;;;5034328;28;20072;-73
2023/06/01 08:23:05;;;;;;;0.20;0.20;;;13.00;99.90;;;;;;5034275;28;20029;-73
2023/06/01 08:25:31;;;;;;;0.20;0.20;;;13.30;99.90;;;;;;5034062;28;20059;-71
2023/06/01 08:27:56;;;;;;;0.20;0.20;;;13.50;99.90;;;;;;5034135;28;20029;-72
2023/06/01 08:30:24;;;;;;;0.30;0.30;;;13.50;99.90;;;;;;5034073;28;20128;-71
2023/06/01 08:32:50;;;;;;;0.20;0.20;;;13.30;99.90;;;;;;5034039;28;20499;-71
2023/06/01 08:35:16;;;;;;;0.20;0.20;;;13.30;99.90;;;;;;5033928;28;20109;-71
2023/06/01 08:37:42;;;;;;;0.20;0.20;;;13.40;99.90;;;;;;5092143;23;20492;-79
2023/06/01 08:40:10;;;;;;;0.20;0.20;;;13.70;99.90;;;;;;5039352;28;20053;-79
2023/06/01 08:42:45;;;;;;;0.22;0.22;;;13.70;99.90;;;;;;5042658;28;20032;-81
2023/06/01 08:45:13;;;;;;;0.10;0.10;;;13.90;99.90;;;;;;5019397;28;20057;-79
2023/06/01 08:47:40;;;;;;;0.20;0.20;;;14.10;99.90;;;;;;5028168;28;20073;-79
2023/06/01 08:50:08;;;;;;;0.17;0.17;;;14.00;99.90;;;;;;5024958;28;20053;-78
2023/06/01 08:52:35;;;;;;;0.20;0.20;;;14.00;99.90;;;;;;5025192;28;20030;-80
2023/06/01 08:55:02;;;;;;;0.20;0.20;;;14.10;99.90;;;;;;5030074;28;20041;-77
2023/06/01 08:57:32;;;;;;;0.20;0.20;;;14.00;99.90;;;;;;5018432;28;20135;-75
2023/06/01 08:59:59;;;;;;;0.20;0.20;;;13.80;99.90;;;;;;5033859;28;20399;-76
2023/06/01 09:02:25;;;;;;;0.20;0.20;;;13.70;99.90;;;;;;5033673;28;20035;-76
2023/06/01 09:04:52;;;;;;;0.20;0.20;;;13.60;99.90;;;;;;5037211;28;20514;-78
2023/06/01 09:07:18;;;;;;;0.20;0.20;;;13.60;99.90;;;;;;5036253;28;20034;-80
2023/06/01 09:09:45;;;;;;;0.10;0.10;;;13.40;99.90;;;;;;5035303;28;20124;-79
2023/06/01 09:12:24;;;;;;;0.10;0.10;;;13.30;99.90;;;;;;5034353;28;20055;-80
2023/06/01 09:14:50;;;;;;;0.17;0.17;;;13.30;99.90;;;;;;5016943;28;20029;-79
2023/06/01 09:17:23;;;;;;;0.20;0.20;;;13.40;99.90;;;;;;5016071;28;20029;-79
2023/06/01 09:19:54;;;;;;;0.17;0.17;;;13.60;99.90;;;;;;5024846;28;20029;-77
2023/06/01 09:22:20;;;;;;;0.20;0.20;;;14.30;99.90;;;;;;5014747;28;20292;-79
2023/06/01 09:24:59;;;;;;;0.10;0.10;;;15.10;99.90;;;;;;5027221;28;20029;-79
2023/06/01 09:27:27;;;;;;;0.10;0.10;;;15.40;99.90;;;;;;5036939;28;20391;-79
2023/06/01 09:29:56;;;;;;;0.20;0.20;;;15.10;99.90;;;;;;5035026;28;20079;-79
2023/06/01 09:32:22;;;;;;;0.20;0.20;;;14.80;99.90;;;;;;5035043;28;20084;-80
2023/06/01 09:34:48;;;;;;;0.15;0.15;;;14.50;99.90;;;;;;5033278;28;20049;-78
2023/06/01 09:37:14;;;;;;;0.20;0.20;;;14.40;99.90;;;;;;5034852;28;20044;-78
2023/06/01 09:39:40;;;;;;;0.20;0.20;;;14.60;99.90;;;;;;5035610;28;20026;-78
2023/06/01 09:42:06;;;;;;;0.20;0.20;;;14.90;99.90;;;;;;5035406;28;20034;-77
2023/06/01 09:44:37;;;;;;;0.10;0.10;;;14.90;99.90;;;;;;5029430;28;20021;-78
2023/06/01 09:47:09;;;;;;;0.10;0.10;;;15.40;99.90;;;;;;5034051;28;20021;-80
2023/06/01 09:49:42;;;;;;;0.20;0.20;;;15.50;99.90;;;;;;5022267;28;20026;-79
2023/06/01 09:52:07;;;;;;;0.10;0.10;;;15.70;99.90;;;;;;5016716;28;20026;-79
2023/06/01 09:54:58;;;;;;;0.10;0.10;;;15.80;99.90;;;;;;5015113;28;20631;-77
2023/06/01 09:57:29;;;;;;;0.20;0.20;;;15.60;99.90;;;;;;5013571;28;20078;-80
2023/06/01 09:59:54;;;;;;;0.20;0.20;;;15.50;99.90;;;;;;5015706;28;20026;-79
2023/06/01 10:02:22;;;;;;;0.20;0.20;;;15.60;99.90;;;;;;5036299;28;20121;-80
2023/06/01 10:04:53;;;;;;;0.10;0.10;;;16.00;99.90;;;;;;5036099;28;20399;-78
2023/06/01 10:07:20;;;;;;;0.20;0.20;;;16.00;99.90;;;;;;5035282;28;20018;-78
2023/06/01 10:09:49;;;;;;;0.20;0.20;;;15.80;99.90;;;;;;5037020;28;20467;-78
2023/06/01 10:12:15;;;;;;;0.20;0.20;;;15.50;99.90;;;;;;5035118;28;20056;-78
2023/06/01 10:14:41;;;;;;;0.20;0.20;;;15.30;99.90;;;;;;5033032;28;20045;-78
2023/06/01 10:17:09;;;;;;;0.10;0.10;;;15.50;99.90;;;;;;5034750;28;20025;-78
2023/06/01 10:19:39;;;;;;;0.20;0.20;;;15.60;99.90;;;;;;5036301;28;20017;-78
2023/06/01 10:22:06;;;;;;;0.20;0.20;;;16.10;99.90;;;;;;5039858;28;20022;-78
2023/06/01 10:24:32;;;;;;;0.20;0.20;;;16.00;99.90;;;;;;5038861;28;20100;-78
2023/06/01 10:27:20;;;;;;;0.20;0.20;;;16.00;99.90;;;;;;5039760;28;20024;-78
2023/06/01 10:29:46;;;;;;;0.15;0.15;;;16.40;99.90;;;;;;5038281;28;20095;-78
2023/06/01 10:32:37;;;;;;;0.20;0.20;;;16.70;99.90;;;;;;5039821;28;20545;-78
2023/06/01 10:35:12;;;;;;;0.20;0.20;;;16.90;99.90;;;;;;5039110;28;20478;-79
2023/06/01 10:37:38;;;;;;;0.20;0.20;;;16.60;99.90;;;;;;5039328;28;20271;-79
2023/06/01 10:40:16;;;;;;;0.17;0.17;;;16.50;99.90;;;;;;5037893;28;20395;-79
2023/06/01 10:42:42;;;;;;;0.20;0.20;;;16.00;99.90;;;;;;5037976;28;20490;-81
2023/06/01 10:45:28;;;;;;;0.20;0.20;;;16.40;99.90;;;;;;5039469;28;20028;-79
2023/06/01 10:47:54;;;;;;;0.20;0.20;;;16.10;99.90;;;;;;5039955;28;20026;-79
2023/06/01 10:50:20;;;;;;;0.20;0.20;;;15.80;99.90;;;;;;5039648;28;20106;-79
2023/06/01 10:52:46;;;;;;;0.20;0.20;;;15.80;99.90;;;;;;5039521;28;20030;-78
2023/06/01 10:55:13;;;;;;;0.20;0.20;;;16.20;99.90;;;;;;5039552;28;20057;-78
2023/06/01 10:57:40;;;;;;;0.20;0.20;;;16.30;99.90;;;;;;5039967;28;20017;-79
2023/06/01 11:00:27;;;;;;;0.20;0.20;;;16.10;99.90;;;;;;5038759;28;20018;-78
2023/06/01 11:03:03;;;;;;;0.20;0.20;;;16.30;99.90;;;;;;5039459;28;20053;-78
2023/06/01 11:05:51;;;;;;;0.17;0.17;;;16.70;99.90;;;;;;5037841;28;20022;-79
2023/06/01 11:08:17;;;;;;;0.10;0.10;;;16.70;99.90;;;;;;5038707;28;20018;-78
2023/06/01 11:10:52;;;;;;;0.10;0.10;;;16.40;99.90;;;;;;5036437;28;20033;-79
2023/06/01 11:13:21;;;;;;;0.13;0.13;;;16.00;99.90;;;;;;5037577;28;20021;-79
2023/06/01 11:16:18;;;;;;;0.10;0.10;;;16.20;99.90;;;;;;5035471;28;20057;-78
2023/06/01 11:18:57;;;;;;;0.20;0.20;;;16.60;99.90;;;;;;5030060;28;20022;-79
2023/06/01 11:21:46;;;;;;;0.10;0.10;;;16.40;99.90;;;;;;5016803;28;20022;-78
2023/06/01 11:24:16;;;;;;;0.20;0.20;;;16.10;99.90;;;;;;5021016;28;20032;-79
2023/06/01 11:26:46;;;;;;;0.15;0.15;;;16.20;99.90;;;;;;5036609;28;20033;-80
2023/06/01 11:29:20;;;;;;;0.10;0.10;;;16.40;99.90;;;;;;5035332;28;20108;-80
2023/06/01 11:31:47;;;;;;;;;;;16.70;99.90;;;;;;5039961;28;20035;-81
2023/06/01 11:34:15;;;;;;;0.20;0.20;;;16.50;99.90;;;;;;5039541;28;19912;-79
2023/06/01 11:36:50;;;;;;;0.20;0.20;;;16.40;99.90;;;;;;5038239;28;20049;-80
2023/06/01 11:39:28;;;;;;;0.10;0.10;;;16.20;99.90;;;;;;5036791;28;20108;-80
2023/06/01 11:42:10;;;;;;;0.10;0.10;;;16.30;99.90;;;;;;5037685;28;20079;-81
2023/06/01 11:44:41;;;;;;;0.20;0.20;;;16.70;99.90;;;;;;5037485;28;20049;-79
2023/06/01 11:47:09;;;;;;;0.20;0.20;;;16.90;99.90;;;;;;5038657;28;20025;-79
2023/06/01 11:49:44;;;;;;;0.20;0.20;;;16.60;99.90;;;;;;5038938;28;20016;-78
2023/06/01 11:52:10;;;;;;;0.20;0.20;;;16.40;99.90;;;;;;5039159;28;20021;-78
2023/06/01 11:54:37;;;;;;;0.10;0.10;;;16.80;99.90;;;;;;5040113;28;20061;-78
2023/06/01 11:57:03;;;;;;;0.20;0.20;;;16.90;99.90;;;;;;5039352;28;20021;-78
2023/06/01 11:59:38;;;;;;;0.10;0.10;;;16.70;99.90;;;;;;5038514;28;20033;-78
2023/06/01 12:02:15;;;;;;;0.17;0.17;;;16.70;99.90;;;;;;5039478;28;20021;-79
2023/06/01 12:04:41;;;;;;;0.20;0.20;;;16.80;99.90;;;;;;5044017;28;20081;-79
2023/06/01 12:07:07;;;;;;;0.20;0.20;;;16.90;99.90;;;;;;5039605;28;20021;-77
2023/06/01 12:09:34;;;;;;;0.20;0.20;;;17.20;99.90;;;;;;5039098;28;20022;-78
2023/06/01 12:12:00;;;;;;;0.20;0.20;;;17.20;99.90;;;;;;5036718;28;20117;-79
2023/06/01 12:14:27;;;;;;;0.20;0.20;;;17.30;99.90;;;;;;5039354;28;20056;-79
2023/06/01 12:17:02;;;;;;;0.10;0.10;;;17.20;99.90;;;;;;5034545;28;20030;-80
2023/06/01 12:19:28;;;;;;;0.20;0.20;;;17.30;99.90;;;;;;5019756;28;20029;-81
2023/06/01 12:21:56;;;;;;;0.20;0.20;;;17.30;99.90;;;;;;5018247;28;20030;-80
2023/06/01 12:24:30;;;;;;;0.10;0.10;;;17.80;99.90;;;;;;5025341;28;20096;-81
2023/06/01 12:26:58;;;;;;;0.10;0.10;;;17.50;99.90;;;;;;5039971;28;20141;-81
2023/06/01 12:29:41;;;;;;;0.10;0.10;;;17.60;99.90;;;;;;5038428;28;20021;-79
2023/06/01 12:32:08;;;;;;;0.20;0.20;;;17.90;99.90;;;;;;5038591;28;20029;-81
2023/06/01 12:34:35;;;;;;;0.20;0.20;;;18.50;99.90;;;;;;5039066;28;20040;-80
2023/06/01 12:37:12;;;;;;;0.17;0.17;;;18.40;99.90;;;;;;5038944;28;20037;-80
2023/06/01 12:39:39;;;;;;;0.17;0.17;;;18.00;99.90;;;;;;5037381;28;20025;-81
2023/06/01 12:42:05;;;;;;;0.20;0.20;;;18.00;99.90;;;;;;5037223;28;20033;-80
2023/06/01 12:44:35;;;;;;;0.20;0.20;;;18.20;99.90;;;;;;5037911;28;20037;-80
2023/06/01 12:47:01;;;;;;;0.20;0.20;;;18.30;99.90;;;;;;5037148;28;20026;-81
2023/06/01 12:49:27;;;;;;;0.10;0.10;;;18.30;99.90;;;;;;5035514;28;20028;-77
2023/06/01 12:51:53;;;;;;;0.20;0.20;;;18.00;99.90;;;;;;5041694;28;20113;-78